Time;durP1;ratioP1;P1;durP2;ratioP2;P2;SDS_P1;SDS_P2;PMS_P1;PMS_P2;Temp;Humidity;BMP_temperature;BMP_pressure;BME280_temperature;BME280_humidity;BME280_pressure;Samples;Min_cycle;Max_cycle;Signal;HPM_P1;HPM_P2
2022/04/19 00:00:04;;;;;;;;;14.75;12.50;;;;;;;;5020375;28;45474;-61
2022/04/19 00:02:29;;;;;;;;;15.00;12.75;;;;;;;;5033559;28;46522;-61
2022/04/19 00:04:58;;;;;;;;;12.50;12.50;;;;;;;;5014541;28;45564;-61
2022/04/19 00:07:23;;;;;;;;;6.75;6.75;;;;;;;;5029719;28;45407;-61
2022/04/19 00:09:48;;;;;;;;;15.25;14.50;;;;;;;;5033485;28;45530;-61
2022/04/19 00:12:14;;;;;;;;;14.75;13.75;;;;;;;;5033404;28;45619;-61
2022/04/19 00:14:40;;;;;;;;;15.25;13.00;;;;;;;;5032292;28;45468;-61
2022/04/19 00:17:05;;;;;;;;;14.75;14.75;;;;;;;;5035900;28;45377;-61
2022/04/19 00:19:31;;;;;;;;;14.25;12.75;;;;;;;;5028535;28;45722;-61
2022/04/19 00:21:56;;;;;;;;;14.75;12.50;;;;;;;;5026959;28;45989;-61
2022/04/19 00:24:21;;;;;;;;;12.00;11.75;;;;;;;;5033006;28;45359;-59
2022/04/19 00:26:46;;;;;;;;;13.50;13.50;;;;;;;;5033531;28;45380;-61
2022/04/19 00:29:12;;;;;;;;;12.50;10.75;;;;;;;;5030646;28;45535;-61
2022/04/19 00:31:37;;;;;;;;;11.50;11.50;;;;;;;;5032668;28;45648;-61
2022/04/19 00:34:02;;;;;;;;;14.00;11.75;;;;;;;;5031905;28;45669;-61
2022/04/19 00:36:28;;;;;;;;;12.50;10.25;;;;;;;;5033149;28;45579;-61
2022/04/19 00:38:54;;;;;;;;;10.50;8.25;;;;;;;;5032456;28;45536;-60
2022/04/19 00:41:19;;;;;;;;;11.25;9.50;;;;;;;;5033423;28;46514;-60
2022/04/19 00:43:44;;;;;;;;;10.75;9.50;;;;;;;;5031949;28;45412;-61
2022/04/19 00:46:09;;;;;;;;;12.75;10.50;;;;;;;;5035405;28;45555;-61
2022/04/19 00:48:35;;;;;;;;;11.75;11.50;;;;;;;;5039576;28;45502;-61
2022/04/19 00:51:00;;;;;;;;;13.00;13.00;;;;;;;;5039597;28;46281;-60
2022/04/19 00:53:27;;;;;;;;;16.50;15.25;;;;;;;;5039740;28;45398;-61
2022/04/19 00:55:52;;;;;;;;;15.25;13.75;;;;;;;;5041963;28;45391;-60
2022/04/19 00:58:17;;;;;;;;;12.00;11.00;;;;;;;;5039123;28;45369;-61
2022/04/19 01:00:43;;;;;;;;;12.25;10.50;;;;;;;;5039366;28;45811;-62
2022/04/19 01:03:09;;;;;;;;;10.00;9.00;;;;;;;;5039574;28;45327;-60
2022/04/19 01:05:34;;;;;;;;;10.50;10.00;;;;;;;;5038579;28;45970;-61
2022/04/19 01:08:00;;;;;;;;;12.75;9.00;;;;;;;;5037076;28;45364;-61
2022/04/19 01:10:26;;;;;;;;;11.00;10.00;;;;;;;;5037110;28;46433;-61
2022/04/19 01:15:36;;;;;;;;;8.00;7.00;;;;;;;;5039380;28;45339;-60
2022/04/19 01:18:01;;;;;;;;;6.00;6.00;;;;;;;;5039424;28;45319;-60
2022/04/19 01:20:28;;;;;;;;;10.50;9.00;;;;;;;;5039377;28;46452;-60
2022/04/19 01:22:53;;;;;;;;;6.50;6.50;;;;;;;;5041583;28;45166;-60
2022/04/19 01:25:19;;;;;;;;;10.75;7.25;;;;;;;;5039209;28;45316;-61
2022/04/19 01:27:44;;;;;;;;;5.00;5.00;;;;;;;;5039189;28;45285;-61
2022/04/19 01:30:10;;;;;;;;;6.50;6.50;;;;;;;;5038649;28;46007;-61
2022/04/19 01:32:36;;;;;;;;;7.00;5.75;;;;;;;;5039114;28;45404;-60
2022/04/19 01:35:20;;;;;;;;;6.25;5.00;;;;;;;;5041604;28;45344;-60
2022/04/19 01:37:49;;;;;;;;;5.50;5.50;;;;;;;;5039574;28;45294;-60
2022/04/19 01:40:18;;;;;;;;;5.75;5.75;;;;;;;;5034195;28;45918;-61
2022/04/19 01:42:46;;;;;;;;;7.50;5.75;;;;;;;;5046062;28;46275;-60
2022/04/19 01:45:12;;;;;;;;;7.25;6.50;;;;;;;;5039042;28;45293;-61
2022/04/19 01:47:39;;;;;;;;;5.75;4.50;;;;;;;;5037768;28;45448;-61
2022/04/19 01:50:08;;;;;;;;;5.25;4.25;;;;;;;;5021122;28;46456;-61
2022/04/19 01:52:33;;;;;;;;;8.00;7.00;;;;;;;;5037338;28;45556;-61
2022/04/19 01:54:59;;;;;;;;;6.00;6.00;;;;;;;;5037831;28;45611;-61
2022/04/19 01:57:25;;;;;;;;;7.50;5.00;;;;;;;;5033169;28;45565;-62
2022/04/19 01:59:50;;;;;;;;;6.25;5.00;;;;;;;;5034774;28;45720;-61
2022/04/19 02:02:15;;;;;;;;;5.25;5.25;;;;;;;;5036046;28;45285;-61
2022/04/19 02:04:40;;;;;;;;;5.50;3.75;;;;;;;;5014738;28;45354;-61
2022/04/19 02:07:06;;;;;;;;;5.25;5.25;;;;;;;;5030158;28;45394;-60
2022/04/19 02:09:31;;;;;;;;;7.25;5.75;;;;;;;;5035175;28;46559;-60
2022/04/19 02:11:56;;;;;;;;;5.25;5.25;;;;;;;;5035553;28;45464;-60
2022/04/19 02:14:23;;;;;;;;;7.50;6.25;;;;;;;;5036009;28;45297;-60
2022/04/19 02:16:48;;;;;;;;;5.50;4.25;;;;;;;;5035750;28;45373;-60
2022/04/19 02:19:14;;;;;;;;;6.00;6.00;;;;;;;;5030671;28;45601;-60
2022/04/19 02:21:39;;;;;;;;;7.00;5.00;;;;;;;;5025418;28;45346;-60
2022/04/19 02:24:04;;;;;;;;;4.00;4.00;;;;;;;;5035486;28;45551;-60
2022/04/19 02:26:29;;;;;;;;;4.75;4.75;;;;;;;;5017351;28;45386;-60
2022/04/19 02:28:55;;;;;;;;;7.25;6.00;;;;;;;;5037099;28;45483;-60
2022/04/19 02:31:21;;;;;;;;;5.00;5.00;;;;;;;;5033258;28;47917;-61
2022/04/19 02:33:46;;;;;;;;;6.50;5.50;;;;;;;;5035307;28;45475;-60
2022/04/19 02:36:11;;;;;;;;;2.50;2.50;;;;;;;;5035134;28;45525;-60
2022/04/19 02:38:37;;;;;;;;;5.00;5.00;;;;;;;;5035031;28;45477;-60
2022/04/19 02:41:02;;;;;;;;;6.00;6.00;;;;;;;;5037941;28;45450;-60
2022/04/19 02:43:27;;;;;;;;;7.50;4.25;;;;;;;;5035149;28;45622;-60
2022/04/19 02:45:54;;;;;;;;;5.25;4.00;;;;;;;;5035155;28;45397;-60
2022/04/19 02:48:19;;;;;;;;;5.75;4.50;;;;;;;;5034764;28;47610;-60
2022/04/19 02:50:45;;;;;;;;;8.00;7.00;;;;;;;;5034941;28;45368;-60
2022/04/19 02:53:11;;;;;;;;;5.00;5.00;;;;;;;;5036577;28;45360;-61
2022/04/19 02:55:36;;;;;;;;;6.25;5.00;;;;;;;;5033987;28;45502;-60
2022/04/19 02:58:02;;;;;;;;;3.25;3.25;;;;;;;;5030022;28;47710;-60
2022/04/19 03:00:27;;;;;;;;;4.00;4.00;;;;;;;;5024403;28;45419;-60
2022/04/19 03:02:53;;;;;;;;;8.50;6.50;;;;;;;;5034959;28;45782;-60
2022/04/19 03:05:18;;;;;;;;;5.00;5.00;;;;;;;;5035722;28;45397;-60
2022/04/19 03:07:44;;;;;;;;;5.00;5.00;;;;;;;;5030573;28;46408;-60
2022/04/19 03:10:09;;;;;;;;;1.50;0.00;;;;;;;;5030944;28;45302;-60
2022/04/19 03:12:34;;;;;;;;;7.25;4.75;;;;;;;;5034638;28;45445;-60
2022/04/19 03:15:00;;;;;;;;;5.50;4.00;;;;;;;;5034739;28;45590;-60
2022/04/19 03:17:25;;;;;;;;;5.75;5.00;;;;;;;;5034466;28;45367;-61
2022/04/19 03:19:51;;;;;;;;;4.50;3.75;;;;;;;;5036556;28;45425;-60
2022/04/19 03:22:16;;;;;;;;;9.50;6.75;;;;;;;;5030270;28;45429;-60
2022/04/19 03:27:43;;;;;;;;;6.50;5.50;;;;;;;;5032479;28;45391;-61
2022/04/19 03:30:09;;;;;;;;;4.75;4.75;;;;;;;;5032854;28;45561;-61
2022/04/19 03:32:36;;;;;;;;;9.00;7.50;;;;;;;;5034343;28;45242;-61
2022/04/19 03:35:01;;;;;;;;;6.00;6.00;;;;;;;;5036313;28;45292;-61
2022/04/19 03:37:26;;;;;;;;;6.25;5.75;;;;;;;;5033752;28;45356;-58
2022/04/19 03:39:52;;;;;;;;;4.00;4.00;;;;;;;;5034052;28;45546;-60
2022/04/19 03:42:17;;;;;;;;;4.75;4.75;;;;;;;;5034265;28;45395;-60
2022/04/19 03:44:42;;;;;;;;;3.50;3.00;;;;;;;;5034255;28;45310;-61
2022/04/19 03:47:07;;;;;;;;;7.50;6.00;;;;;;;;5036247;28;46379;-61
2022/04/19 03:49:33;;;;;;;;;5.00;5.00;;;;;;;;5032455;28;45369;-61
2022/04/19 03:51:58;;;;;;;;;5.75;3.25;;;;;;;;5034198;28;45423;-61
2022/04/19 03:54:24;;;;;;;;;5.00;5.00;;;;;;;;5033918;28;45398;-61
2022/04/19 03:56:49;;;;;;;;;1.00;1.00;;;;;;;;5033810;28;46933;-60
2022/04/19 03:59:14;;;;;;;;;3.00;3.00;;;;;;;;5035327;28;45274;-61
2022/04/19 04:01:39;;;;;;;;;3.50;3.50;;;;;;;;5029111;28;45291;-60
2022/04/19 04:04:07;;;;;;;;;4.00;4.00;;;;;;;;5030100;28;45509;-62
2022/04/19 04:06:32;;;;;;;;;5.75;4.75;;;;;;;;5032359;28;48264;-61
2022/04/19 04:08:58;;;;;;;;;3.75;3.75;;;;;;;;5031902;28;45732;-61
2022/04/19 04:11:23;;;;;;;;;4.00;4.00;;;;;;;;5033834;28;45474;-61
2022/04/19 04:13:48;;;;;;;;;3.50;3.50;;;;;;;;5035855;28;45369;-61
2022/04/19 04:16:13;;;;;;;;;4.50;3.75;;;;;;;;5029044;28;46202;-61
2022/04/19 04:18:42;;;;;;;;;8.50;5.00;;;;;;;;5023998;28;45465;-61
2022/04/19 04:21:07;;;;;;;;;1.75;1.50;;;;;;;;5032563;28;45478;-61
2022/04/19 04:23:33;;;;;;;;;3.75;1.75;;;;;;;;5031725;28;45358;-60
2022/04/19 04:25:58;;;;;;;;;7.25;4.00;;;;;;;;5013684;28;48760;-61
2022/04/19 04:28:23;;;;;;;;;3.00;3.00;;;;;;;;5027611;28;45396;-61
2022/04/19 04:30:49;;;;;;;;;3.50;3.50;;;;;;;;5027479;28;45343;-61
2022/04/19 04:33:14;;;;;;;;;6.50;4.00;;;;;;;;5032126;28;45479;-61
2022/04/19 04:35:39;;;;;;;;;4.50;4.50;;;;;;;;5033439;28;47368;-60
2022/04/19 04:38:04;;;;;;;;;2.25;2.25;;;;;;;;5035568;28;45451;-61
2022/04/19 04:40:29;;;;;;;;;9.00;5.50;;;;;;;;5028759;28;45400;-61
2022/04/19 04:42:55;;;;;;;;;5.75;4.50;;;;;;;;5025521;28;45460;-60
2022/04/19 04:45:20;;;;;;;;;7.25;3.25;;;;;;;;5032011;28;47506;-61
2022/04/19 04:50:29;;;;;;;;;5.50;4.00;;;;;;;;5033430;28;45556;-61
2022/04/19 04:52:54;;;;;;;;;6.00;5.25;;;;;;;;5035161;28;45259;-61
2022/04/19 04:55:20;;;;;;;;;4.50;3.50;;;;;;;;5032649;28;46217;-61
2022/04/19 04:57:45;;;;;;;;;4.00;4.00;;;;;;;;5032830;28;45480;-60
2022/04/19 05:00:10;;;;;;;;;7.25;5.00;;;;;;;;5033080;28;45477;-61
2022/04/19 05:02:36;;;;;;;;;4.00;4.00;;;;;;;;5031914;28;45307;-60
2022/04/19 05:05:01;;;;;;;;;6.00;5.00;;;;;;;;5035154;28;45537;-61
2022/04/19 05:07:26;;;;;;;;;4.00;4.00;;;;;;;;5031308;28;45373;-61
2022/04/19 05:09:51;;;;;;;;;3.75;3.75;;;;;;;;5033059;28;45370;-61
2022/04/19 05:12:17;;;;;;;;;3.25;3.25;;;;;;;;5031729;28;45491;-62
2022/04/19 05:14:42;;;;;;;;;3.00;3.00;;;;;;;;5031532;28;47781;-61
2022/04/19 05:17:07;;;;;;;;;3.00;2.00;;;;;;;;5030243;28;45586;-62
2022/04/19 05:19:32;;;;;;;;;3.50;3.50;;;;;;;;5031864;28;45389;-61
2022/04/19 05:21:57;;;;;;;;;4.25;4.00;;;;;;;;5032556;28;45395;-61
2022/04/19 05:24:23;;;;;;;;;4.00;3.75;;;;;;;;5032596;28;46630;-62
2022/04/19 05:26:48;;;;;;;;;4.00;4.00;;;;;;;;5029940;28;47013;-62
2022/04/19 05:29:13;;;;;;;;;4.25;3.00;;;;;;;;5030215;28;45362;-62
2022/04/19 05:31:38;;;;;;;;;3.25;2.25;;;;;;;;5035692;28;45198;-62
2022/04/19 05:34:04;;;;;;;;;5.75;4.75;;;;;;;;5035892;28;45948;-62
2022/04/19 05:36:29;;;;;;;;;4.00;4.00;;;;;;;;5034762;28;45482;-63
2022/04/19 05:38:55;;;;;;;;;5.50;4.00;;;;;;;;5036262;28;45854;-63
2022/04/19 05:41:21;;;;;;;;;6.75;5.25;;;;;;;;5035662;28;45311;-62
2022/04/19 05:43:47;;;;;;;;;4.50;4.00;;;;;;;;5034827;28;46517;-62
2022/04/19 05:46:12;;;;;;;;;8.25;4.25;;;;;;;;5028348;28;45791;-62
2022/04/19 05:48:38;;;;;;;;;5.00;5.00;;;;;;;;5026561;28;45413;-63
2022/04/19 05:51:03;;;;;;;;;5.00;3.75;;;;;;;;5034965;28;45399;-62
2022/04/19 05:53:29;;;;;;;;;4.00;4.00;;;;;;;;5035851;28;45861;-61
2022/04/19 05:55:54;;;;;;;;;6.25;6.00;;;;;;;;5031940;28;46305;-61
2022/04/19 05:58:19;;;;;;;;;7.50;5.25;;;;;;;;5032513;28;45266;-61
2022/04/19 06:00:44;;;;;;;;;6.75;5.75;;;;;;;;5035760;28;45190;-61
2022/04/19 06:05:53;;;;;;;;;5.50;5.00;;;;;;;;5021015;28;45491;-61
2022/04/19 06:08:19;;;;;;;;;7.75;5.00;;;;;;;;5033211;28;45281;-61
2022/04/19 06:10:45;;;;;;;;;9.00;9.00;;;;;;;;5037115;28;45432;-61
2022/04/19 06:13:10;;;;;;;;;9.00;9.00;;;;;;;;5030210;28;45596;-62
2022/04/19 06:15:37;;;;;;;;;9.25;9.00;;;;;;;;5027521;28;45404;-61
2022/04/19 06:18:03;;;;;;;;;8.25;7.00;;;;;;;;5035645;28;45392;-60
2022/04/19 06:20:28;;;;;;;;;10.25;6.50;;;;;;;;5033699;28;45407;-60
2022/04/19 06:22:53;;;;;;;;;7.00;7.00;;;;;;;;5037385;28;46612;-60
2022/04/19 06:25:19;;;;;;;;;9.00;7.25;;;;;;;;5036296;28;45423;-60
2022/04/19 06:27:44;;;;;;;;;8.75;7.00;;;;;;;;5037292;28;45498;-61
2022/04/19 06:30:10;;;;;;;;;13.50;11.00;;;;;;;;5035192;28;45510;-60
2022/04/19 06:32:36;;;;;;;;;11.75;10.75;;;;;;;;5051498;28;46512;-61
2022/04/19 06:35:01;;;;;;;;;12.00;9.00;;;;;;;;5032675;28;45628;-60
2022/04/19 06:37:26;;;;;;;;;12.00;12.00;;;;;;;;5032770;28;45498;-60
2022/04/19 06:39:52;;;;;;;;;15.25;13.75;;;;;;;;5030549;28;45558;-61
2022/04/19 06:42:17;;;;;;;;;16.75;13.75;;;;;;;;5024105;28;48957;-61
2022/04/19 06:44:42;;;;;;;;;10.75;8.75;;;;;;;;5035004;28;45501;-61
2022/04/19 06:47:08;;;;;;;;;15.50;13.75;;;;;;;;5037152;28;45538;-61
2022/04/19 06:49:33;;;;;;;;;12.25;12.25;;;;;;;;5034596;28;45552;-60
2022/04/19 06:51:59;;;;;;;;;14.50;12.00;;;;;;;;5034572;28;45992;-60
2022/04/19 06:54:24;;;;;;;;;11.25;11.25;;;;;;;;5033093;28;45343;-61
2022/04/19 06:56:50;;;;;;;;;10.75;9.25;;;;;;;;5035084;28;47757;-61
2022/04/19 06:59:15;;;;;;;;;14.00;13.75;;;;;;;;5032559;28;45243;-60
2022/04/19 07:01:43;;;;;;;;;14.50;12.00;;;;;;;;5035333;28;45769;-61
2022/04/19 07:04:09;;;;;;;;;12.75;11.25;;;;;;;;5033064;28;45428;-60
2022/04/19 07:06:35;;;;;;;;;13.25;10.25;;;;;;;;5034519;28;45444;-60
2022/04/19 07:09:00;;;;;;;;;12.50;12.50;;;;;;;;5017696;28;45421;-60
2022/04/19 07:11:25;;;;;;;;;12.50;10.50;;;;;;;;5034666;28;46335;-60
2022/04/19 07:13:51;;;;;;;;;18.75;14.75;;;;;;;;5035180;28;45420;-60
2022/04/19 07:16:16;;;;;;;;;11.75;11.00;;;;;;;;5024699;28;45739;-63
2022/04/19 07:18:41;;;;;;;;;13.50;10.25;;;;;;;;5022217;28;45470;-63
2022/04/19 07:26:40;;;;;;;;;9.50;9.50;;;;;;;;5034033;28;45452;-62
2022/04/19 07:29:07;;;;;;;;;10.75;8.50;;;;;;;;5032185;28;45365;-62
2022/04/19 07:31:33;;;;;;;;;17.25;12.00;;;;;;;;5032853;28;47114;-61
2022/04/19 07:33:58;;;;;;;;;14.75;13.75;;;;;;;;5028897;28;45560;-61
2022/04/19 07:36:24;;;;;;;;;17.00;15.00;;;;;;;;5023441;28;45424;-61
2022/04/19 07:38:49;;;;;;;;;9.00;8.50;;;;;;;;5030781;28;45420;-61
2022/04/19 07:41:17;;;;;;;;;11.75;11.75;;;;;;;;5035060;28;46500;-61
2022/04/19 07:43:44;;;;;;;;;14.75;13.00;;;;;;;;5034161;28;45290;-62
2022/04/19 07:46:10;;;;;;;;;16.50;14.50;;;;;;;;5034031;28;45507;-62
2022/04/19 07:48:36;;;;;;;;;15.25;15.00;;;;;;;;5033781;28;45172;-61
2022/04/19 07:51:01;;;;;;;;;18.50;15.25;;;;;;;;5032005;28;45804;-61
2022/04/19 07:53:26;;;;;;;;;15.00;12.25;;;;;;;;5031114;28;45401;-62
2022/04/19 07:55:51;;;;;;;;;15.75;10.75;;;;;;;;5035798;28;45254;-61
2022/04/19 07:58:16;;;;;;;;;17.25;15.75;;;;;;;;5029620;28;45271;-61
2022/04/19 08:00:42;;;;;;;;;13.25;11.50;;;;;;;;5025029;28;46428;-61
2022/04/19 08:03:07;;;;;;;;;14.75;12.25;;;;;;;;5033702;28;45372;-63
2022/04/19 08:05:33;;;;;;;;;15.25;13.75;;;;;;;;5034131;28;45341;-62
2022/04/19 08:07:58;;;;;;;;;14.00;11.75;;;;;;;;5035993;28;45364;-63
2022/04/19 08:10:23;;;;;;;;;17.50;12.75;;;;;;;;5033641;28;46375;-62
2022/04/19 08:12:48;;;;;;;;;18.75;16.00;;;;;;;;5033801;28;45711;-61
2022/04/19 08:15:13;;;;;;;;;14.50;13.25;;;;;;;;5032515;28;45371;-62
2022/04/19 08:17:39;;;;;;;;;11.50;11.00;;;;;;;;5034006;28;45419;-61
2022/04/19 08:20:05;;;;;;;;;12.50;11.25;;;;;;;;5030158;28;48676;-61
2022/04/19 08:22:30;;;;;;;;;11.25;11.25;;;;;;;;5033209;28;45313;-62
2022/04/19 08:24:56;;;;;;;;;10.25;10.00;;;;;;;;5029085;28;45416;-61
2022/04/19 08:27:21;;;;;;;;;10.00;10.00;;;;;;;;5021951;28;45422;-61
2022/04/19 08:29:46;;;;;;;;;12.25;12.25;;;;;;;;5033236;28;46551;-63
2022/04/19 08:32:12;;;;;;;;;15.00;11.50;;;;;;;;5034366;28;45261;-62
2022/04/19 08:34:38;;;;;;;;;13.50;11.75;;;;;;;;5030303;28;45486;-61
2022/04/19 08:37:03;;;;;;;;;11.75;11.75;;;;;;;;5029156;28;45356;-61
2022/04/19 08:39:29;;;;;;;;;10.75;10.75;;;;;;;;5031598;28;45516;-62
2022/04/19 08:41:54;;;;;;;;;6.50;6.00;;;;;;;;5033203;28;45222;-63
2022/04/19 08:44:19;;;;;;;;;13.75;11.50;;;;;;;;5034060;28;45270;-61
2022/04/19 08:46:45;;;;;;;;;16.00;12.00;;;;;;;;5034344;28;45536;-62
2022/04/19 08:49:10;;;;;;;;;14.25;11.50;;;;;;;;5027857;28;46391;-61
2022/04/19 08:51:36;;;;;;;;;10.25;8.75;;;;;;;;5023564;28;46076;-61
2022/04/19 08:59:30;;;;;;;;;14.50;11.75;;;;;;;;5033084;28;45893;-61
2022/04/19 09:01:55;;;;;;;;;13.25;10.75;;;;;;;;5033822;28;45552;-62
2022/04/19 09:04:21;;;;;;;;;9.75;8.75;;;;;;;;5033431;28;45470;-62
2022/04/19 09:06:54;;;;;;;;;11.25;10.25;;;;;;;;5036553;28;45476;-61
2022/04/19 09:09:21;;;;;;;;;10.00;10.00;;;;;;;;5036009;28;46640;-61
2022/04/19 09:11:46;;;;;;;;;10.50;8.00;;;;;;;;5036400;28;45506;-62
2022/04/19 09:14:12;;;;;;;;;10.75;10.75;;;;;;;;5033501;28;45442;-63
2022/04/19 09:16:37;;;;;;;;;7.00;6.25;;;;;;;;5033695;28;45583;-63
2022/04/19 09:19:02;;;;;;;;;10.25;9.75;;;;;;;;5030622;28;45579;-63
2022/04/19 09:21:40;;;;;;;;;6.25;6.25;;;;;;;;5036366;28;45206;-63
2022/04/19 09:24:25;;;;;;;;;10.50;9.50;;;;;;;;5036517;28;45590;-63
2022/04/19 09:26:51;;;;;;;;;9.25;9.00;;;;;;;;5021998;28;45676;-63
2022/04/19 09:29:21;;;;;;;;;7.25;7.25;;;;;;;;5037113;28;45466;-63
2022/04/19 09:32:01;;;;;;;;;9.75;8.75;;;;;;;;5033193;28;45372;-63
2022/04/19 09:34:28;;;;;;;;;8.00;7.25;;;;;;;;5033904;28;45576;-63
2022/04/19 09:36:54;;;;;;;;;10.25;7.75;;;;;;;;5031245;28;45609;-63
2022/04/19 09:39:28;;;;;;;;;8.25;6.75;;;;;;;;5024501;28;46524;-63
2022/04/19 09:42:01;;;;;;;;;8.25;8.25;;;;;;;;5036125;28;45470;-63
2022/04/19 09:44:26;;;;;;;;;9.50;8.25;;;;;;;;5036274;28;45286;-63
2022/04/19 09:47:04;;;;;;;;;11.25;9.25;;;;;;;;5037956;28;45373;-62
2022/04/19 09:49:45;;;;;;;;;13.25;10.00;;;;;;;;5035779;28;46610;-64
2022/04/19 09:52:14;;;;;;;;;6.00;6.00;;;;;;;;5031095;28;46201;-63
2022/04/19 09:54:40;;;;;;;;;12.00;9.75;;;;;;;;5029049;28;45284;-64
2022/04/19 09:57:11;;;;;;;;;15.50;10.25;;;;;;;;5035990;28;45324;-63
2022/04/19 09:59:43;;;;;;;;;7.00;7.00;;;;;;;;5018627;28;45878;-64
2022/04/19 10:10:24;;;;;;;;;10.25;10.25;;;;;;;;5035411;28;47648;-63
2022/04/19 10:12:49;;;;;;;;;10.00;9.00;;;;;;;;5030616;28;46121;-62
2022/04/19 10:15:15;;;;;;;;;12.25;11.00;;;;;;;;5022892;28;45234;-63
2022/04/19 10:17:40;;;;;;;;;11.75;10.50;;;;;;;;5032145;28;45358;-65
2022/04/19 10:20:07;;;;;;;;;11.25;9.25;;;;;;;;5037696;28;45932;-65
2022/04/19 10:22:32;;;;;;;;;13.50;12.00;;;;;;;;5032150;28;45291;-64
2022/04/19 10:24:58;;;;;;;;;10.75;9.25;;;;;;;;5030417;28;45290;-65
2022/04/19 10:27:30;;;;;;;;;9.75;9.75;;;;;;;;5035466;28;47638;-64
2022/04/19 10:29:55;;;;;;;;;11.75;10.75;;;;;;;;5034266;28;48524;-64
2022/04/19 10:32:28;;;;;;;;;12.75;11.25;;;;;;;;5032944;28;45552;-63
2022/04/19 10:34:59;;;;;;;;;13.50;13.50;;;;;;;;5036171;28;45290;-64
2022/04/19 10:37:24;;;;;;;;;10.00;10.00;;;;;;;;5030590;28;45482;-64
2022/04/19 10:40:12;;;;;;;;;10.75;10.75;;;;;;;;5026068;28;46581;-64
2022/04/19 10:42:38;;;;;;;;;12.00;11.75;;;;;;;;5035041;28;45483;-63
2022/04/19 10:45:13;;;;;;;;;14.50;13.00;;;;;;;;5035320;28;45683;-63
2022/04/19 10:47:53;;;;;;;;;11.00;10.50;;;;;;;;5033510;28;45526;-63
2022/04/19 10:50:25;;;;;;;;;11.25;11.25;;;;;;;;5033235;28;45485;-63
2022/04/19 10:52:51;;;;;;;;;11.50;9.75;;;;;;;;5033719;28;45886;-64
2022/04/19 10:55:17;;;;;;;;;12.00;11.00;;;;;;;;5034733;28;45457;-63
2022/04/19 10:58:08;;;;;;;;;11.00;10.75;;;;;;;;5034849;28;45451;-63
2022/04/19 11:00:33;;;;;;;;;11.75;9.75;;;;;;;;5033608;28;46270;-68
2022/04/19 11:03:02;;;;;;;;;12.75;10.00;;;;;;;;5033398;28;45548;-65
2022/04/19 11:05:33;;;;;;;;;8.75;8.25;;;;;;;;5034905;28;45339;-66
2022/04/19 11:08:18;;;;;;;;;9.50;9.00;;;;;;;;5032252;28;45430;-66
2022/04/19 11:10:43;;;;;;;;;11.25;11.25;;;;;;;;5035523;28;45477;-65
2022/04/19 11:13:09;;;;;;;;;11.75;11.00;;;;;;;;5029685;28;45353;-65
2022/04/19 11:15:37;;;;;;;;;10.75;10.75;;;;;;;;5040191;28;45374;-65
2022/04/19 11:18:24;;;;;;;;;11.75;10.25;;;;;;;;5034619;28;45296;-65
2022/04/19 11:20:51;;;;;;;;;16.00;11.00;;;;;;;;5034661;28;45844;-65
2022/04/19 11:23:18;;;;;;;;;12.25;12.25;;;;;;;;5031714;28;46140;-64
2022/04/19 11:25:45;;;;;;;;;14.50;11.50;;;;;;;;5035518;28;45924;-65
2022/04/19 11:28:10;;;;;;;;;12.25;12.25;;;;;;;;5033594;28;45617;-65
2022/04/19 11:30:37;;;;;;;;;14.25;12.00;;;;;;;;5033820;28;45499;-64
2022/04/19 11:33:02;;;;;;;;;13.00;9.00;;;;;;;;5033120;28;46249;-64
2022/04/19 11:35:32;;;;;;;;;14.50;13.75;;;;;;;;5034004;28;45235;-64
2022/04/19 11:37:57;;;;;;;;;15.25;12.25;;;;;;;;5034520;28;45397;-64
2022/04/19 11:48:44;;;;;;;;;9.75;9.25;;;;;;;;5034007;28;45384;-64
2022/04/19 11:51:10;;;;;;;;;13.50;12.25;;;;;;;;5033122;28;46669;-62
2022/04/19 11:53:36;;;;;;;;;13.00;10.25;;;;;;;;5033120;28;45654;-63
2022/04/19 11:56:02;;;;;;;;;11.50;9.00;;;;;;;;5035994;28;45391;-63
2022/04/19 11:58:28;;;;;;;;;11.25;9.75;;;;;;;;5033884;28;45459;-62
2022/04/19 12:00:58;;;;;;;;;10.75;10.75;;;;;;;;5033812;28;46345;-64
2022/04/19 12:03:27;;;;;;;;;13.75;10.75;;;;;;;;5033616;28;45580;-65
2022/04/19 12:05:54;;;;;;;;;12.50;12.50;;;;;;;;5032681;28;45500;-65
2022/04/19 12:08:29;;;;;;;;;12.50;11.50;;;;;;;;5034321;28;45477;-63
2022/04/19 12:10:55;;;;;;;;;14.25;11.50;;;;;;;;5033007;28;47554;-63
2022/04/19 12:13:20;;;;;;;;;11.25;10.50;;;;;;;;5033523;28;45418;-63
2022/04/19 12:15:45;;;;;;;;;14.50;12.00;;;;;;;;5032243;28;45749;-64
2022/04/19 12:18:28;;;;;;;;;12.25;11.25;;;;;;;;5033614;28;45321;-63
2022/04/19 12:20:53;;;;;;;;;11.25;10.00;;;;;;;;5019964;28;45905;-63
2022/04/19 12:23:19;;;;;;;;;6.00;5.50;;;;;;;;5033789;28;45586;-63
2022/04/19 12:26:17;;;;;;;;;6.75;6.75;;;;;;;;5034943;28;45530;-63
2022/04/19 12:28:43;;;;;;;;;10.00;5.25;;;;;;;;4991885;28;45486;-63
2022/04/19 12:31:28;;;;;;;;;6.25;4.50;;;;;;;;5008992;28;45638;-63
2022/04/19 12:33:56;;;;;;;;;7.50;6.50;;;;;;;;4996163;28;45356;-64
2022/04/19 12:36:25;;;;;;;;;3.75;2.25;;;;;;;;5013096;28;45449;-63
2022/04/19 12:39:01;;;;;;;;;8.50;5.75;;;;;;;;5012761;28;45397;-64
2022/04/19 12:41:36;;;;;;;;;6.75;6.00;;;;;;;;5012208;28;45545;-64
2022/04/19 12:44:02;;;;;;;;;5.00;4.00;;;;;;;;5012912;28;45531;-63
2022/04/19 12:46:27;;;;;;;;;5.25;5.00;;;;;;;;5012724;28;45485;-63
2022/04/19 12:48:56;;;;;;;;;10.25;7.00;;;;;;;;4995863;28;45554;-63
2022/04/19 12:51:23;;;;;;;;;5.25;5.25;;;;;;;;5012289;28;46582;-63
2022/04/19 12:53:59;;;;;;;;;5.25;5.25;;;;;;;;5012338;28;45302;-63
2022/04/19 12:56:26;;;;;;;;;5.25;5.25;;;;;;;;4996019;28;45486;-64
2022/04/19 12:58:51;;;;;;;;;5.50;4.75;;;;;;;;5013132;28;45453;-64
2022/04/19 13:01:16;;;;;;;;;4.75;3.50;;;;;;;;5012596;28;46539;-64
2022/04/19 13:03:41;;;;;;;;;9.25;7.00;;;;;;;;5012149;28;45462;-63
2022/04/19 13:14:19;;;;;;;;;5.25;5.25;;;;;;;;4970463;28;45558;-64
2022/04/19 13:16:44;;;;;;;;;5.00;5.00;;;;;;;;4973460;28;45467;-64
2022/04/19 13:19:09;;;;;;;;;4.75;4.75;;;;;;;;4973141;28;45427;-64
2022/04/19 13:21:35;;;;;;;;;4.50;4.50;;;;;;;;4972727;28;46716;-64
2022/04/19 13:24:01;;;;;;;;;6.75;6.00;;;;;;;;4972385;28;45547;-64
2022/04/19 13:26:28;;;;;;;;;6.75;6.75;;;;;;;;4973168;28;45598;-64
2022/04/19 13:28:53;;;;;;;;;5.00;4.00;;;;;;;;4973184;28;45273;-64
2022/04/19 13:31:18;;;;;;;;;5.25;4.00;;;;;;;;4972469;28;46420;-64
2022/04/19 13:33:44;;;;;;;;;5.00;5.00;;;;;;;;4972698;28;45660;-64
2022/04/19 13:36:10;;;;;;;;;3.75;3.75;;;;;;;;4956556;28;45333;-64
2022/04/19 13:38:36;;;;;;;;;4.00;4.00;;;;;;;;4972706;28;45484;-64
2022/04/19 13:41:02;;;;;;;;;6.00;6.00;;;;;;;;4973382;28;45851;-64
2022/04/19 13:43:27;;;;;;;;;4.25;4.25;;;;;;;;4972390;28;45909;-64
2022/04/19 13:45:52;;;;;;;;;5.25;5.25;;;;;;;;4972639;28;45763;-63
2022/04/19 13:48:17;;;;;;;;;3.00;3.00;;;;;;;;4984842;28;45304;-63
2022/04/19 13:50:44;;;;;;;;;4.00;4.00;;;;;;;;5012728;28;46449;-64
2022/04/19 13:53:09;;;;;;;;;5.00;5.00;;;;;;;;4999735;28;45671;-64
2022/04/19 13:55:35;;;;;;;;;4.00;4.00;;;;;;;;5015857;28;45668;-63
2022/04/19 13:58:00;;;;;;;;;4.25;4.25;;;;;;;;5015872;28;45352;-63
2022/04/19 14:00:27;;;;;;;;;3.00;3.00;;;;;;;;5015646;28;47151;-63
2022/04/19 14:02:53;;;;;;;;;7.00;5.00;;;;;;;;5016063;28;45373;-64
2022/04/19 14:05:18;;;;;;;;;5.25;3.00;;;;;;;;5016745;28;45311;-65
2022/04/19 14:07:43;;;;;;;;;5.75;4.75;;;;;;;;5012144;28;45297;-63
2022/04/19 14:10:09;;;;;;;;;7.00;4.75;;;;;;;;5012034;28;45334;-64
2022/04/19 14:12:34;;;;;;;;;5.00;2.00;;;;;;;;5014302;28;45345;-64
2022/04/19 14:15:00;;;;;;;;;4.75;4.75;;;;;;;;5015764;28;45569;-64
2022/04/19 14:17:25;;;;;;;;;5.00;5.00;;;;;;;;5016008;28;47540;-64
2022/04/19 14:19:53;;;;;;;;;7.00;4.00;;;;;;;;5014195;28;48675;-64
2022/04/19 14:22:19;;;;;;;;;7.00;7.00;;;;;;;;5011234;28;45573;-65
2022/04/19 14:24:44;;;;;;;;;3.00;3.00;;;;;;;;5007267;28;45435;-64
2022/04/19 14:27:09;;;;;;;;;5.75;5.75;;;;;;;;5014819;28;45568;-64
2022/04/19 14:35:02;;;;;;;;;7.00;6.00;;;;;;;;5036768;28;45290;-63
2022/04/19 14:37:28;;;;;;;;;6.75;4.00;;;;;;;;5030506;28;45458;-64
2022/04/19 14:39:53;;;;;;;;;3.75;3.75;;;;;;;;5028970;28;45777;-63
2022/04/19 14:42:18;;;;;;;;;3.00;3.00;;;;;;;;5033866;28;46262;-64
2022/04/19 14:44:43;;;;;;;;;2.00;2.00;;;;;;;;5035443;28;45462;-64
2022/04/19 14:47:10;;;;;;;;;4.00;4.00;;;;;;;;5036954;28;45355;-63
2022/04/19 14:49:35;;;;;;;;;4.00;4.00;;;;;;;;5034988;28;45847;-63
2022/04/19 14:52:16;;;;;;;;;6.25;3.00;;;;;;;;5033325;28;45374;-63
2022/04/19 14:54:41;;;;;;;;;4.25;4.25;;;;;;;;5035158;28;45376;-63
2022/04/19 14:57:06;;;;;;;;;4.25;4.25;;;;;;;;5035075;28;45479;-64
2022/04/19 14:59:32;;;;;;;;;4.00;4.00;;;;;;;;5034950;28;47063;-63
2022/04/19 15:01:58;;;;;;;;;5.00;4.25;;;;;;;;5037074;28;45333;-63
2022/04/19 15:04:23;;;;;;;;;3.50;3.50;;;;;;;;5034292;28;45274;-63
2022/04/19 15:06:48;;;;;;;;;6.00;6.00;;;;;;;;5034800;28;45629;-64
2022/04/19 15:09:14;;;;;;;;;7.00;3.75;;;;;;;;5034614;28;46312;-63
2022/04/19 15:11:39;;;;;;;;;5.00;5.00;;;;;;;;5034903;28;45337;-64
2022/04/19 15:14:04;;;;;;;;;4.25;4.25;;;;;;;;5036743;28;45628;-64
2022/04/19 15:16:30;;;;;;;;;6.00;5.00;;;;;;;;5034485;28;45525;-64
2022/04/19 15:18:55;;;;;;;;;6.00;6.00;;;;;;;;5034400;28;45427;-64
2022/04/19 15:21:20;;;;;;;;;4.25;3.25;;;;;;;;5033796;28;45427;-65